createdAt,value
2022-12-27T00:02:26.466Z,93.78
2022-12-27T00:04:54.063Z,97.90
2022-12-27T00:07:20.649Z,82.90
2022-12-27T00:09:47.323Z,86.85
2022-12-27T00:12:13.891Z,82.60
2022-12-27T00:14:40.515Z,102.10
2022-12-27T00:17:07.155Z,95.53
2022-12-27T00:19:33.757Z,101.55
2022-12-27T00:22:01.618Z,90.75
2022-12-27T00:24:28.320Z,91.47
2022-12-27T00:26:54.946Z,87.45
2022-12-27T00:29:21.660Z,85.15
2022-12-27T00:31:48.519Z,82.22
2022-12-27T00:34:15.145Z,78.28
2022-12-27T00:36:41.708Z,82.82
2022-12-27T00:39:08.317Z,96.90
2022-12-27T00:41:34.942Z,86.45
2022-12-27T00:44:01.662Z,80.82
2022-12-27T00:46:28.473Z,85.32
2022-12-27T00:48:55.532Z,87.82
2022-12-27T00:51:24.245Z,82.47
2022-12-27T00:53:52.693Z,82.90
2022-12-27T00:56:24.338Z,84.57
2022-12-27T00:58:59.438Z,80.90
2022-12-27T01:01:28.328Z,70.60
2022-12-27T01:03:57.534Z,70.00
2022-12-27T01:06:29.032Z,72.65
2022-12-27T01:08:56.704Z,76.05
2022-12-27T01:11:24.379Z,83.10
2022-12-27T01:13:50.959Z,78.25
2022-12-27T01:16:22.142Z,73.80
2022-12-27T01:18:49.646Z,67.90
2022-12-27T01:21:18.958Z,69.38
2022-12-27T01:23:46.075Z,70.28
2022-12-27T01:26:21.510Z,72.07
2022-12-27T01:28:48.998Z,61.17
2022-12-27T01:31:18.577Z,76.35
2022-12-27T01:33:45.439Z,77.80
2022-12-27T01:36:17.653Z,68.63
2022-12-27T01:38:44.692Z,66.13
2022-12-27T01:41:45.441Z,63.88
2022-12-27T01:44:40.041Z,71.47
2022-12-27T01:47:12.407Z,66.85
2022-12-27T01:49:41.962Z,77.22
2022-12-27T01:52:10.937Z,74.53
2022-12-27T01:54:37.710Z,65.25
2022-12-27T01:57:04.845Z,68.78
2022-12-27T01:59:33.534Z,77.45
2022-12-27T02:02:01.347Z,63.90
2022-12-27T02:04:31.659Z,74.95
2022-12-27T02:06:59.728Z,76.75
2022-12-27T02:09:38.606Z,74.28
2022-12-27T02:12:07.408Z,63.75
2022-12-27T02:14:40.395Z,73.93
2022-12-27T02:17:10.927Z,74.65
2022-12-27T02:19:40.462Z,60.08
2022-12-27T02:22:27.256Z,84.70
2022-12-27T02:25:02.814Z,79.70
2022-12-27T02:27:53.886Z,82.78
2022-12-27T02:30:20.644Z,80.18
2022-12-27T02:32:59.628Z,74.47
2022-12-27T02:38:01.198Z,71.30
2022-12-27T02:40:48.211Z,76.95
2022-12-27T02:43:33.624Z,79.85
2022-12-27T02:46:31.179Z,81.95
2022-12-27T02:49:17.928Z,85.38
2022-12-27T02:52:26.910Z,56.30
2022-12-27T02:55:11.114Z,68.55
2022-12-27T02:57:48.717Z,63.55
2022-12-27T03:00:36.618Z,73.55
2022-12-27T03:03:44.272Z,73.60
2022-12-27T03:06:45.307Z,75.03
2022-12-27T03:09:36.446Z,69.90
2022-12-27T03:12:41.062Z,75.18
2022-12-27T03:15:49.034Z,70.30
2022-12-27T03:18:44.763Z,66.80
2022-12-27T03:21:38.138Z,72.55
2022-12-27T03:24:42.195Z,65.53
2022-12-27T03:27:18.737Z,67.13
2022-12-27T03:30:06.895Z,67.22
2022-12-27T03:32:56.642Z,64.30
2022-12-27T03:35:26.987Z,61.30
2022-12-27T03:38:05.320Z,61.10
2022-12-27T03:41:07.230Z,58.60
2022-12-27T03:43:36.157Z,68.50
2022-12-27T03:46:33.909Z,76.90
2022-12-27T03:49:31.610Z,70.37
2022-12-27T03:52:36.657Z,54.78
2022-12-27T03:55:04.525Z,61.53
2022-12-27T03:57:31.613Z,72.78
2022-12-27T03:59:58.387Z,67.30
2022-12-27T04:02:25.093Z,72.05
2022-12-27T04:04:51.850Z,63.97
2022-12-27T04:07:18.407Z,62.17
2022-12-27T04:10:03.513Z,74.43
2022-12-27T04:12:48.445Z,60.10
2022-12-27T04:15:33.437Z,69.25
2022-12-27T04:18:18.267Z,68.72
2022-12-27T04:21:03.577Z,67.90
2022-12-27T04:23:49.020Z,68.03
2022-12-27T04:26:33.989Z,66.38
2022-12-27T04:29:19.367Z,74.30
2022-12-27T04:32:04.811Z,71.72
2022-12-27T04:34:46.447Z,63.95
2022-12-27T04:37:18.558Z,70.72
2022-12-27T04:40:06.974Z,76.28
2022-12-27T04:42:52.355Z,64.80
2022-12-27T04:45:37.550Z,64.07
2022-12-27T04:48:25.113Z,65.43
2022-12-27T04:51:10.479Z,67.57
2022-12-27T04:53:55.684Z,68.38
2022-12-27T05:02:26.456Z,60.95
2022-12-27T05:04:59.366Z,70.93
2022-12-27T05:07:46.467Z,73.32
2022-12-27T05:10:32.104Z,73.70
2022-12-27T05:13:17.233Z,66.25
2022-12-27T05:15:43.893Z,71.28
2022-12-27T05:18:13.658Z,70.18
2022-12-27T05:20:46.285Z,64.57
2022-12-27T05:23:36.899Z,56.25
2022-12-27T05:26:03.873Z,80.82
2022-12-27T05:28:30.550Z,78.40
2022-12-27T05:31:02.762Z,73.63
2022-12-27T05:33:39.312Z,80.07
2022-12-27T05:36:09.392Z,68.13
2022-12-27T05:38:41.903Z,63.78
2022-12-27T05:41:15.615Z,65.28
2022-12-27T05:43:50.758Z,79.00
2022-12-27T05:46:22.994Z,75.50
2022-12-27T05:48:57.859Z,70.55
2022-12-27T05:51:29.915Z,64.65
2022-12-27T05:53:57.099Z,67.03
2022-12-27T05:56:29.595Z,70.72
2022-12-27T05:59:01.882Z,77.05
2022-12-27T06:01:31.932Z,67.85
2022-12-27T06:04:09.561Z,67.70
2022-12-27T06:06:36.574Z,66.18
2022-12-27T06:09:12.497Z,68.30
2022-12-27T06:11:39.155Z,63.80
2022-12-27T06:14:06.011Z,70.50
2022-12-27T06:16:32.957Z,69.97
2022-12-27T06:19:05.612Z,69.68
2022-12-27T06:21:44.303Z,73.15
2022-12-27T06:24:16.785Z,62.20
2022-12-27T06:26:58.028Z,58.78
2022-12-27T06:29:27.867Z,65.25
2022-12-27T06:32:03.183Z,72.53
2022-12-27T06:34:32.788Z,63.88
2022-12-27T06:37:12.324Z,62.50
2022-12-27T06:39:45.632Z,58.75
2022-12-27T06:42:14.870Z,70.03
2022-12-27T06:44:41.488Z,64.32
2022-12-27T06:47:13.810Z,56.60
2022-12-27T06:49:40.405Z,66.72
2022-12-27T06:52:07.092Z,61.40
2022-12-27T06:54:33.881Z,62.97
2022-12-27T06:57:00.488Z,67.78
2022-12-27T06:59:27.141Z,66.90
2022-12-27T07:02:05.004Z,66.20
2022-12-27T07:04:52.665Z,55.72
2022-12-27T07:07:31.309Z,64.22
2022-12-27T07:10:52.688Z,66.35
2022-12-27T07:13:22.197Z,62.55
2022-12-27T07:15:51.196Z,69.68
2022-12-27T07:21:25.169Z,70.07
2022-12-27T07:23:52.270Z,57.35
2022-12-27T07:26:24.508Z,65.57
2022-12-27T07:28:55.350Z,59.85
2022-12-27T07:31:37.522Z,55.85
2022-12-27T07:34:04.812Z,63.97
2022-12-27T07:36:57.166Z,56.45
2022-12-27T07:39:31.353Z,61.55
2022-12-27T07:42:03.325Z,55.92
2022-12-27T07:44:32.909Z,60.25
2022-12-27T07:46:59.491Z,64.45
2022-12-27T07:49:26.258Z,56.85
2022-12-27T07:51:52.843Z,61.15
2022-12-27T07:54:19.811Z,69.68
2022-12-27T07:59:24.676Z,58.72
2022-12-27T08:02:07.833Z,54.50
2022-12-27T08:04:54.689Z,42.50
2022-12-27T08:07:23.020Z,54.13
2022-12-27T08:10:37.874Z,48.00
2022-12-27T08:13:04.751Z,43.83
2022-12-27T08:15:37.779Z,44.97
2022-12-27T08:18:13.193Z,41.47
2022-12-27T08:20:39.817Z,42.85
2022-12-27T08:23:06.387Z,46.20
2022-12-27T08:25:32.964Z,39.85
2022-12-27T08:28:08.924Z,43.55
2022-12-27T08:30:35.905Z,53.63
2022-12-27T08:33:04.424Z,42.40
2022-12-27T08:35:53.165Z,40.03
2022-12-27T08:38:22.106Z,47.03
2022-12-27T08:40:48.686Z,58.78
2022-12-27T08:43:17.376Z,58.92
2022-12-27T08:45:44.051Z,50.47
2022-12-27T08:48:10.682Z,55.05
2022-12-27T08:50:40.603Z,55.40
2022-12-27T08:53:10.212Z,54.95
2022-12-27T08:55:42.817Z,53.80
2022-12-27T08:58:26.939Z,56.72
2022-12-27T09:00:53.567Z,64.35
2022-12-27T09:03:24.567Z,64.38
2022-12-27T09:06:11.360Z,62.60
2022-12-27T09:09:13.651Z,62.58
2022-12-27T09:11:40.300Z,60.20
2022-12-27T09:14:09.776Z,61.03
2022-12-27T09:16:42.610Z,61.15
2022-12-27T09:19:33.256Z,50.47
2022-12-27T09:21:59.983Z,63.08
2022-12-27T09:24:26.573Z,52.35
2022-12-27T09:27:13.233Z,55.28
2022-12-27T09:29:59.765Z,61.58
2022-12-27T09:32:27.545Z,56.33
2022-12-27T09:34:55.765Z,53.85
2022-12-27T09:37:22.375Z,56.85
2022-12-27T09:39:49.069Z,51.25
2022-12-27T09:43:01.937Z,57.83
2022-12-27T09:45:55.500Z,58.78
2022-12-27T09:48:44.763Z,49.92
2022-12-27T09:51:20.305Z,61.15
2022-12-27T09:54:00.585Z,50.40
2022-12-27T09:56:47.438Z,53.83
2022-12-27T09:59:32.100Z,60.13
2022-12-27T10:01:59.456Z,61.72
2022-12-27T10:04:52.563Z,61.47
2022-12-27T10:07:30.213Z,62.53
2022-12-27T10:10:19.004Z,66.57
2022-12-27T10:13:02.337Z,68.78
2022-12-27T10:16:01.411Z,70.10
2022-12-27T10:18:46.751Z,66.93
2022-12-27T10:21:40.257Z,69.15
2022-12-27T10:24:20.985Z,66.05
2022-12-27T10:26:47.763Z,69.47
2022-12-27T10:29:34.458Z,69.38
2022-12-27T10:32:01.061Z,68.85
2022-12-27T10:34:27.666Z,77.47
2022-12-27T10:36:54.266Z,66.68
2022-12-27T10:39:32.668Z,60.20
2022-12-27T10:42:41.857Z,66.45
2022-12-27T10:45:32.416Z,61.13
2022-12-27T10:48:20.473Z,76.00
2022-12-27T10:51:06.193Z,64.38
2022-12-27T10:53:40.457Z,63.65
2022-12-27T10:56:20.699Z,61.88
2022-12-27T10:58:56.455Z,55.25
2022-12-27T11:01:30.303Z,67.20
2022-12-27T11:04:24.587Z,56.15
2022-12-27T11:07:12.145Z,54.63
2022-12-27T11:09:50.163Z,49.63
2022-12-27T11:12:24.637Z,50.50
2022-12-27T11:15:01.831Z,51.20
2022-12-27T11:17:41.792Z,52.50
2022-12-27T11:20:17.514Z,50.17
2022-12-27T11:22:51.340Z,51.70
2022-12-27T11:25:18.357Z,62.10
2022-12-27T11:27:48.339Z,57.92
2022-12-27T11:30:24.761Z,53.45
2022-12-27T11:32:55.867Z,55.20
2022-12-27T11:35:23.173Z,64.07
2022-12-27T11:37:51.480Z,61.72
2022-12-27T11:40:30.732Z,60.25
2022-12-27T11:43:05.388Z,56.67
2022-12-27T11:45:44.375Z,54.13
2022-12-27T11:48:34.031Z,59.58
2022-12-27T11:51:32.584Z,61.33
2022-12-27T11:54:32.669Z,60.95
2022-12-27T11:57:34.357Z,63.03
2022-12-27T12:00:27.226Z,61.03
2022-12-27T12:02:53.921Z,62.17
2022-12-27T12:05:43.157Z,61.80
2022-12-27T12:08:45.742Z,64.35
2022-12-27T12:11:23.806Z,63.22
2022-12-27T12:14:27.953Z,54.70
2022-12-27T12:17:14.406Z,61.03
2022-12-27T12:19:48.747Z,61.53
2022-12-27T12:22:30.080Z,60.80
2022-12-27T12:25:26.820Z,55.13
2022-12-27T12:28:56.187Z,55.05
2022-12-27T12:31:34.676Z,57.20
2022-12-27T12:34:27.175Z,50.85
2022-12-27T12:36:59.440Z,56.72
2022-12-27T12:39:47.268Z,57.35
2022-12-27T12:42:32.117Z,57.80
2022-12-27T12:45:40.168Z,59.25
2022-12-27T12:48:12.652Z,60.30
2022-12-27T12:51:04.045Z,62.65
2022-12-27T12:53:30.571Z,54.88
2022-12-27T12:56:19.045Z,68.90
2022-12-27T13:01:30.235Z,58.95
2022-12-27T13:10:05.799Z,59.60
2022-12-27T13:12:37.623Z,58.72
2022-12-27T13:15:32.253Z,64.25
2022-12-27T13:18:25.154Z,55.70
2022-12-27T13:21:36.993Z,60.83
2022-12-27T13:24:10.878Z,63.97
2022-12-27T13:26:59.426Z,70.63
2022-12-27T13:29:47.582Z,65.05
2022-12-27T13:32:36.093Z,73.72
2022-12-27T13:35:40.121Z,73.93
2022-12-27T13:38:30.969Z,72.53
2022-12-27T13:41:30.574Z,72.72
2022-12-27T13:44:10.115Z,65.68
2022-12-27T13:46:44.295Z,69.38
2022-12-27T13:49:31.990Z,71.90
2022-12-27T13:52:32.569Z,72.63
2022-12-27T13:55:14.444Z,76.10
2022-12-27T13:57:53.296Z,71.38
2022-12-27T14:00:21.868Z,64.20
2022-12-27T14:02:57.277Z,71.93
2022-12-27T14:06:02.676Z,72.20
2022-12-27T14:08:54.967Z,64.15
2022-12-27T14:11:54.070Z,67.85
2022-12-27T14:14:24.858Z,71.25
2022-12-27T14:17:09.902Z,75.72
2022-12-27T14:20:10.429Z,69.93
2022-12-27T14:22:45.746Z,75.18
2022-12-27T14:25:52.001Z,73.32
2022-12-27T14:28:51.370Z,64.35
2022-12-27T14:31:58.879Z,72.63
2022-12-27T14:34:50.511Z,67.20
2022-12-27T14:38:03.403Z,60.47
2022-12-27T14:41:01.355Z,74.75
2022-12-27T14:44:17.922Z,70.47
2022-12-27T14:47:15.641Z,70.80
2022-12-27T14:49:53.975Z,63.38
2022-12-27T14:52:55.903Z,68.50
2022-12-27T14:56:07.382Z,68.70
2022-12-27T14:59:33.842Z,57.03
2022-12-27T15:02:55.210Z,66.25
2022-12-27T15:11:45.782Z,67.80
2022-12-27T15:14:41.278Z,74.93
2022-12-27T15:17:19.890Z,66.93
2022-12-27T15:20:38.784Z,72.63
2022-12-27T15:23:24.830Z,62.80
2022-12-27T15:26:19.147Z,62.75
2022-12-27T15:28:45.729Z,56.85
2022-12-27T15:31:40.584Z,62.97
2022-12-27T15:34:36.949Z,68.50
2022-12-27T15:37:48.040Z,71.93
2022-12-27T15:40:55.086Z,89.22
2022-12-27T15:44:07.561Z,73.15
2022-12-27T15:46:55.419Z,71.88
2022-12-27T15:49:39.569Z,73.72
2022-12-27T15:52:56.612Z,72.47
2022-12-27T15:59:04.400Z,82.50
2022-12-27T16:01:33.864Z,75.35
2022-12-27T16:04:56.535Z,71.28
2022-12-27T16:08:08.013Z,60.42
2022-12-27T16:11:18.498Z,63.45
2022-12-27T16:14:08.597Z,59.88
2022-12-27T16:19:47.905Z,68.10
2022-12-27T16:22:42.639Z,77.78
2022-12-27T16:29:10.315Z,80.82
2022-12-27T16:32:14.914Z,79.40
2022-12-27T16:38:24.937Z,77.15
2022-12-27T16:41:25.472Z,75.88
2022-12-27T16:44:23.779Z,78.15
2022-12-27T16:46:58.308Z,86.72
2022-12-27T16:50:00.192Z,75.88
2022-12-27T16:52:56.249Z,77.25
2022-12-27T16:56:13.032Z,77.78
2022-12-27T16:59:38.105Z,78.30
2022-12-27T17:03:05.672Z,87.70
2022-12-27T17:06:32.349Z,90.07
2022-12-27T17:09:10.511Z,85.03
2022-12-27T17:12:00.044Z,75.38
2022-12-27T17:14:52.801Z,72.00
2022-12-27T17:20:06.683Z,72.15
2022-12-27T17:22:35.834Z,77.68
2022-12-27T17:25:03.735Z,82.88
2022-12-27T17:28:08.055Z,83.27
2022-12-27T17:30:49.799Z,91.85
2022-12-27T17:33:27.407Z,82.32
2022-12-27T17:35:54.483Z,76.03
2022-12-27T17:38:24.089Z,83.00
2022-12-27T17:41:18.533Z,65.65
2022-12-27T17:44:15.840Z,79.72
2022-12-27T17:46:54.982Z,77.32
2022-12-27T17:49:31.029Z,82.72
2022-12-27T17:52:17.582Z,80.72
2022-12-27T17:55:03.069Z,117.18
2022-12-27T17:57:48.761Z,82.38
2022-12-27T18:00:23.316Z,80.32
2022-12-27T18:02:51.254Z,78.07
2022-12-27T18:05:21.046Z,95.68
2022-12-27T18:07:51.076Z,107.43
2022-12-27T18:10:24.965Z,90.28
2022-12-27T18:12:58.094Z,79.40
2022-12-27T18:15:27.143Z,81.93
2022-12-27T18:20:41.827Z,84.60
2022-12-27T18:23:19.050Z,93.55
2022-12-27T18:25:45.521Z,85.90
2022-12-27T18:28:32.211Z,82.13
2022-12-27T18:31:26.761Z,89.75
2022-12-27T18:34:07.664Z,94.88
2022-12-27T18:36:34.124Z,96.10
2022-12-27T18:39:13.219Z,82.68
2022-12-27T18:44:26.590Z,72.85
2022-12-27T18:46:56.784Z,59.97
2022-12-27T18:49:27.353Z,60.60
2022-12-27T18:51:55.188Z,65.43
2022-12-27T18:54:30.465Z,66.88
2022-12-27T18:56:58.334Z,63.65
2022-12-27T18:59:28.861Z,62.97
2022-12-27T19:01:58.396Z,75.20
2022-12-27T19:04:30.867Z,76.75
2022-12-27T19:07:07.298Z,68.97
2022-12-27T19:09:37.526Z,74.88
2022-12-27T19:12:24.718Z,53.65
2022-12-27T19:14:51.773Z,64.72
2022-12-27T19:17:25.174Z,65.78
2022-12-27T19:19:56.119Z,70.03
2022-12-27T19:22:40.507Z,61.10
2022-12-27T19:25:18.590Z,68.75
2022-12-27T19:27:56.999Z,62.22
2022-12-27T19:30:35.579Z,64.13
2022-12-27T19:33:06.269Z,57.83
2022-12-27T19:35:33.196Z,66.00
2022-12-27T19:38:01.752Z,53.00
2022-12-27T19:40:28.574Z,57.00
2022-12-27T19:42:55.155Z,59.30
2022-12-27T19:45:21.826Z,53.97
2022-12-27T19:47:50.818Z,48.47
2022-12-27T19:50:17.601Z,49.45
2022-12-27T19:52:44.266Z,51.63
2022-12-27T19:55:17.898Z,49.50
2022-12-27T19:57:44.833Z,57.58
2022-12-27T20:00:17.427Z,53.53
2022-12-27T20:02:45.114Z,57.53
2022-12-27T20:05:12.529Z,49.42
2022-12-27T20:07:40.373Z,59.80
2022-12-27T20:10:07.545Z,61.35
2022-12-27T20:12:34.278Z,55.35
2022-12-27T20:15:00.959Z,66.03
2022-12-27T20:17:28.781Z,57.17
2022-12-27T20:19:55.346Z,50.25
2022-12-27T20:22:22.267Z,48.22
2022-12-27T20:24:48.983Z,65.43
2022-12-27T20:27:15.644Z,66.30
2022-12-27T20:29:42.495Z,48.08
2022-12-27T20:32:09.125Z,56.90
2022-12-27T20:34:35.832Z,63.95
2022-12-27T20:37:02.423Z,67.13
2022-12-27T20:39:29.059Z,67.47
2022-12-27T20:41:56.285Z,67.68
2022-12-27T20:44:22.945Z,65.63
2022-12-27T20:46:50.724Z,70.72
2022-12-27T20:49:17.338Z,68.55
2022-12-27T20:51:43.913Z,73.75
2022-12-27T20:54:12.862Z,73.78
2022-12-27T20:56:39.511Z,72.90
2022-12-27T20:59:06.108Z,77.50
2022-12-27T21:01:32.880Z,50.42
2022-12-27T21:03:59.558Z,67.00
2022-12-27T21:06:29.092Z,69.25
2022-12-27T21:08:58.272Z,57.33
2022-12-27T21:11:28.559Z,59.10
2022-12-27T21:13:55.359Z,66.25
2022-12-27T21:16:24.913Z,76.15
2022-12-27T21:18:52.243Z,58.65
2022-12-27T21:21:21.643Z,63.55
2022-12-27T21:23:48.776Z,66.68
2022-12-27T21:26:20.316Z,63.50
2022-12-27T21:28:47.540Z,64.50
2022-12-27T21:34:07.112Z,65.55
2022-12-27T21:36:34.270Z,62.00
2022-12-27T21:39:02.052Z,60.17
2022-12-27T21:41:39.864Z,56.70
2022-12-27T21:44:06.871Z,66.07
2022-12-27T21:46:36.472Z,64.25
2022-12-27T21:49:13.548Z,58.15
2022-12-27T21:51:41.822Z,51.60
2022-12-27T21:54:10.505Z,49.57
2022-12-27T21:56:37.726Z,52.75
2022-12-27T21:59:08.790Z,52.58
2022-12-27T22:01:49.581Z,59.22
2022-12-27T22:04:19.268Z,39.08
2022-12-27T22:06:47.494Z,32.97
2022-12-27T22:09:14.562Z,50.95
2022-12-27T22:11:41.169Z,43.53
2022-12-27T22:14:07.888Z,61.78
2022-12-27T22:16:36.966Z,55.72
2022-12-27T22:21:59.825Z,59.70
2022-12-27T22:24:26.441Z,60.28
2022-12-27T22:26:52.960Z,66.80
2022-12-27T22:29:19.639Z,67.38
2022-12-27T22:31:46.573Z,59.88
2022-12-27T22:34:13.210Z,53.25
2022-12-27T22:36:39.880Z,54.13
2022-12-27T22:39:06.539Z,54.55
2022-12-27T22:41:35.659Z,66.60
2022-12-27T22:46:51.094Z,63.92
2022-12-27T22:49:17.660Z,57.42
2022-12-27T22:51:44.572Z,67.60
2022-12-27T22:54:11.401Z,62.38
2022-12-27T22:56:42.310Z,55.92
2022-12-27T22:59:12.582Z,60.22
2022-12-27T23:01:40.654Z,58.55
2022-12-27T23:04:10.573Z,62.13
2022-12-27T23:06:37.202Z,74.70
2022-12-27T23:09:05.382Z,72.50
2022-12-27T23:11:38.102Z,92.40
2022-12-27T23:14:13.262Z,76.32
2022-12-27T23:16:42.773Z,72.25
2022-12-27T23:19:10.388Z,68.97
2022-12-27T23:21:37.135Z,55.60
2022-12-27T23:24:04.852Z,63.25
2022-12-27T23:26:31.517Z,65.80
2022-12-27T23:28:58.158Z,63.92
2022-12-27T23:31:26.523Z,58.45
2022-12-27T23:33:53.509Z,56.55
2022-12-27T23:36:20.820Z,64.05
2022-12-27T23:38:48.598Z,59.90
2022-12-27T23:41:17.855Z,63.45
2022-12-27T23:43:54.585Z,58.53
2022-12-27T23:46:28.261Z,51.53
2022-12-27T23:48:56.490Z,59.47
2022-12-27T23:51:23.709Z,65.80
2022-12-27T23:53:50.407Z,66.18
2022-12-27T23:56:19.794Z,64.60
2022-12-27T23:58:47.179Z,55.78
